Time;durP1;ratioP1;P1;durP2;ratioP2;P2;SDS_P1;SDS_P2;PMS_P1;PMS_P2;Temp;Humidity;BMP_temperature;BMP_pressure;BME280_temperature;BME280_humidity;BME280_pressure;Samples;Min_cycle;Max_cycle;Signal;HPM_P1;HPM_P2
2023/02/08 00:01:22;;;;;;;29.85;18.58;;;;;;;-2.44;100.00;103702.75;5086990;28;20028;-77
2023/02/08 00:03:48;;;;;;;28.90;18.10;;;;;;;-2.49;100.00;103699.72;5083560;28;20024;-88
2023/02/08 00:06:14;;;;;;;30.50;18.38;;;;;;;-2.52;100.00;103702.00;5086752;28;20040;-81
2023/02/08 00:08:40;;;;;;;32.47;19.08;;;;;;;-2.49;100.00;103704.88;5084073;28;20052;-90
2023/02/08 00:11:06;;;;;;;30.08;18.17;;;;;;;-2.50;100.00;103700.47;5085509;28;20033;-90
2023/02/08 00:13:32;;;;;;;30.45;18.58;;;;;;;-2.54;100.00;103698.31;5085259;28;20020;-90
2023/02/08 00:15:58;;;;;;;30.80;18.83;;;;;;;-2.53;100.00;103694.06;5083222;28;20044;-88
2023/02/08 00:18:23;;;;;;;31.00;18.83;;;;;;;-2.56;100.00;103694.66;5086098;28;20110;-83
2023/02/08 00:20:50;;;;;;;30.65;18.25;;;;;;;-2.66;100.00;103697.97;5083449;28;20052;-86
2023/02/08 00:23:17;;;;;;;31.52;18.85;;;;;;;-2.69;100.00;103691.56;5083202;28;20056;-90
2023/02/08 00:25:42;;;;;;;30.23;18.45;;;;;;;-2.75;100.00;103688.31;5085355;28;20040;-90
2023/02/08 00:28:12;;;;;;;30.52;18.63;;;;;;;-2.77;100.00;103687.25;5084050;28;20046;-88
2023/02/08 00:30:37;;;;;;;30.80;18.60;;;;;;;-2.74;100.00;103685.88;5085417;28;20033;-85
2023/02/08 00:33:03;;;;;;;31.17;18.42;;;;;;;-2.75;100.00;103686.66;5084499;28;20474;-91
2023/02/08 00:35:29;;;;;;;30.60;19.17;;;;;;;-2.84;100.00;103684.03;5084050;28;20047;-88
2023/02/08 00:37:55;;;;;;;30.88;19.30;;;;;;;-2.82;100.00;103686.78;5085751;28;20028;-75
2023/02/08 00:40:20;;;;;;;31.45;18.88;;;;;;;-2.90;100.00;103687.63;5082822;28;20029;-75
2023/02/08 00:42:46;;;;;;;34.15;19.60;;;;;;;-2.91;100.00;103686.72;5086362;28;20061;-76
2023/02/08 00:45:11;;;;;;;31.55;19.48;;;;;;;-2.85;100.00;103689.03;5083095;28;20037;-75
2023/02/08 00:47:37;;;;;;;31.73;19.65;;;;;;;-2.84;100.00;103691.78;5069872;28;20116;-75
2023/02/08 00:50:03;;;;;;;31.77;19.33;;;;;;;-2.87;100.00;103678.53;5084674;28;20032;-75
2023/02/08 00:52:29;;;;;;;30.88;19.35;;;;;;;-2.92;100.00;103686.56;5083630;28;20027;-76
2023/02/08 00:54:54;;;;;;;31.55;19.25;;;;;;;-2.91;100.00;103683.19;5085685;28;20040;-75
2023/02/08 00:57:19;;;;;;;31.30;18.33;;;;;;;-2.94;100.00;103685.47;5082562;28;20437;-75
2023/02/08 00:59:45;;;;;;;32.20;19.13;;;;;;;-3.06;100.00;103692.88;5084456;28;20032;-75
2023/02/08 01:02:10;;;;;;;32.10;19.83;;;;;;;-3.07;100.00;103675.50;5082978;28;20064;-75
2023/02/08 01:04:36;;;;;;;32.47;19.55;;;;;;;-3.09;100.00;103677.94;5084773;28;20040;-76
2023/02/08 01:07:01;;;;;;;34.58;19.35;;;;;;;-3.19;100.00;103670.91;5084337;28;20118;-75
2023/02/08 01:09:26;;;;;;;30.83;18.55;;;;;;;-3.16;100.00;103680.63;5083302;28;20032;-75
2023/02/08 01:11:52;;;;;;;31.27;19.33;;;;;;;-3.21;100.00;103679.25;5085492;28;20056;-75
2023/02/08 01:14:17;;;;;;;31.40;18.42;;;;;;;-3.35;100.00;103673.53;5082122;28;20032;-75
2023/02/08 01:16:43;;;;;;;31.65;19.52;;;;;;;-3.27;100.00;103671.75;5085242;28;20028;-75
2023/02/08 01:19:08;;;;;;;31.65;19.15;;;;;;;-3.39;100.00;103675.63;5082997;28;20063;-90
2023/02/08 01:21:37;;;;;;;31.70;18.98;;;;;;;-3.44;100.00;103681.97;5084038;28;20051;-92
2023/02/08 01:24:03;;;;;;;31.33;18.73;;;;;;;-3.57;100.00;103680.69;5083927;28;20111;-75
2023/02/08 01:26:29;;;;;;;30.85;18.75;;;;;;;-3.69;100.00;103664.75;5082962;28;20035;-75
2023/02/08 01:28:55;;;;;;;30.60;19.10;;;;;;;-3.62;100.00;103671.50;5084595;28;20081;-75
2023/02/08 01:31:24;;;;;;;32.00;19.33;;;;;;;-3.65;100.00;103667.69;5081936;28;20103;-75
2023/02/08 01:33:50;;;;;;;32.38;19.05;;;;;;;-3.65;100.00;103666.00;5085291;28;20111;-90
2023/02/08 01:36:16;;;;;;;31.83;19.17;;;;;;;-3.73;100.00;103664.25;5080367;28;20389;-91
2023/02/08 01:38:43;;;;;;;32.17;19.25;;;;;;;-3.76;100.00;103657.09;5083433;28;20040;-90
2023/02/08 01:41:16;;;;;;;29.48;18.23;;;;;;;-3.83;100.00;103666.63;5082539;28;20077;-85
2023/02/08 01:44:11;;;;;;;31.33;19.33;;;;;;;-3.88;100.00;103667.03;5084380;28;20172;-75
2023/02/08 01:46:45;;;;;;;30.58;18.83;;;;;;;-4.03;100.00;103668.88;5083692;28;20033;-88
2023/02/08 01:49:21;;;;;;;31.67;18.77;;;;;;;-4.17;100.00;103668.13;5082247;28;20072;-88
2023/02/08 01:52:08;;;;;;;31.05;18.83;;;;;;;-4.26;100.00;103665.47;5081491;28;20033;-82
2023/02/08 01:54:41;;;;;;;31.70;18.73;;;;;;;-4.15;100.00;103659.81;5082850;28;20097;-89
2023/02/08 01:57:06;;;;;;;30.52;18.85;;;;;;;-4.06;100.00;103665.97;5082840;28;20028;-88
2023/02/08 01:59:37;;;;;;;30.95;18.25;;;;;;;-4.03;100.00;103666.28;5082752;28;20033;-90
2023/02/08 02:02:07;;;;;;;30.35;18.95;;;;;;;-4.01;100.00;103671.63;5083066;28;20040;-75
2023/02/08 02:04:32;;;;;;;32.17;19.10;;;;;;;-4.04;100.00;103664.44;5082977;28;20078;-75
2023/02/08 02:07:00;;;;;;;30.35;17.95;;;;;;;-4.05;100.00;103665.22;5083832;28;20517;-74
2023/02/08 02:09:46;;;;;;;31.05;18.60;;;;;;;-4.05;100.00;103660.06;5081765;28;20029;-74
2023/02/08 02:12:13;;;;;;;30.92;18.38;;;;;;;-4.14;100.00;103660.72;5081955;28;20033;-75
2023/02/08 02:14:39;;;;;;;30.45;18.85;;;;;;;-4.14;100.00;103663.28;5083369;28;20107;-75
2023/02/08 02:17:05;;;;;;;32.40;19.33;;;;;;;-4.10;100.00;103665.47;5082860;28;20469;-75
2023/02/08 02:19:52;;;;;;;30.67;18.55;;;;;;;-4.11;100.00;103666.22;5081028;28;20020;-75
2023/02/08 02:23:12;;;;;;;31.77;19.40;;;;;;;-4.10;100.00;103658.63;5081111;28;20043;-75
2023/02/08 02:26:12;;;;;;;32.05;19.73;;;;;;;-4.03;100.00;103663.72;5067430;28;20493;-75
2023/02/08 02:28:58;;;;;;;32.40;19.30;;;;;;;-4.09;100.00;103654.34;5083033;28;20086;-75
2023/02/08 02:31:48;;;;;;;32.08;19.98;;;;;;;-4.12;100.00;103659.19;5081179;28;20480;-75
2023/02/08 02:34:29;;;;;;;31.42;19.20;;;;;;;-4.21;100.00;103656.53;5081126;28;20025;-74
2023/02/08 02:37:23;;;;;;;33.08;19.58;;;;;;;-4.27;100.00;103653.28;5081140;28;20479;-75
2023/02/08 02:40:17;;;;;;;31.70;18.98;;;;;;;-4.35;100.00;103649.88;5063782;28;20067;-75
2023/02/08 02:45:58;;;;;;;31.48;19.10;;;;;;;-4.46;100.00;103656.41;5083670;28;20078;-75
2023/02/08 02:48:53;;;;;;;31.83;20.25;;;;;;;-4.51;100.00;103654.06;5083589;28;20040;-75
2023/02/08 02:51:31;;;;;;;31.25;19.92;;;;;;;-4.60;100.00;103649.75;5075756;28;20036;-75
2023/02/08 02:54:02;;;;;;;32.13;19.95;;;;;;;-4.66;100.00;103656.84;5085643;28;20487;-75
2023/02/08 02:56:35;;;;;;;31.55;19.30;;;;;;;-4.56;100.00;103656.16;5087387;28;20482;-75
2023/02/08 02:59:05;;;;;;;31.75;19.30;;;;;;;-4.65;100.00;103650.91;5085988;28;20037;-75
2023/02/08 03:01:30;;;;;;;32.08;19.73;;;;;;;-4.70;100.00;103644.31;5086915;28;20034;-75
2023/02/08 03:03:56;;;;;;;33.15;19.73;;;;;;;-4.67;100.00;103649.81;5085428;28;20033;-75
2023/02/08 03:06:40;;;;;;;31.67;19.23;;;;;;;-4.64;100.00;103657.91;5088022;28;20024;-75
2023/02/08 03:09:30;;;;;;;31.90;19.70;;;;;;;-4.68;100.00;103657.41;5086388;28;20024;-75
2023/02/08 03:12:30;;;;;;;33.08;20.10;;;;;;;-4.70;100.00;103643.38;5084898;28;20025;-75
2023/02/08 03:15:03;;;;;;;32.67;19.73;;;;;;;-4.71;100.00;103639.91;5083728;28;20383;-74
2023/02/08 03:17:50;;;;;;;33.13;19.45;;;;;;;-4.72;100.00;103638.06;5087144;28;20115;-74
2023/02/08 03:20:23;;;;;;;30.33;18.88;;;;;;;-4.81;100.00;103644.78;5087722;28;20039;-75
2023/02/08 03:22:51;;;;;;;31.02;18.95;;;;;;;-4.85;100.00;103643.50;5084220;28;20067;-75
2023/02/08 03:25:26;;;;;;;30.80;19.13;;;;;;;-4.86;100.00;103640.75;5084221;28;20035;-75
2023/02/08 03:27:51;;;;;;;30.88;18.70;;;;;;;-4.84;100.00;103640.19;5084268;28;20032;-75
2023/02/08 03:30:47;;;;;;;30.20;18.80;;;;;;;-4.96;100.00;103644.91;5086264;28;20035;-75
2023/02/08 03:33:31;;;;;;;31.20;18.83;;;;;;;-4.95;100.00;103646.75;5087023;28;20390;-75
2023/02/08 03:36:11;;;;;;;31.95;18.98;;;;;;;-4.98;100.00;103646.41;5086894;28;20405;-75
2023/02/08 03:38:39;;;;;;;31.08;18.98;;;;;;;-4.98;100.00;103641.25;5086079;28;20040;-75
2023/02/08 03:41:09;;;;;;;30.48;18.65;;;;;;;-5.01;100.00;103653.81;5085650;28;20105;-75
2023/02/08 03:43:50;;;;;;;31.75;19.52;;;;;;;-5.00;100.00;103653.03;5085692;28;20162;-75
2023/02/08 03:46:23;;;;;;;31.38;19.40;;;;;;;-5.08;100.00;103649.63;5084178;28;20036;-74
2023/02/08 03:49:00;;;;;;;30.85;19.08;;;;;;;-5.06;100.00;103649.78;5083879;28;20033;-75
2023/02/08 03:51:28;;;;;;;32.15;19.42;;;;;;;-5.04;100.00;103650.84;5084468;28;20028;-75
2023/02/08 03:53:57;;;;;;;30.95;19.23;;;;;;;-5.06;100.00;103647.19;5088079;28;20035;-87
2023/02/08 03:56:44;;;;;;;31.17;19.02;;;;;;;-5.04;100.00;103656.03;5083308;28;20052;-81
2023/02/08 03:59:22;;;;;;;30.67;18.98;;;;;;;-4.98;100.00;103651.56;5084409;28;20036;-87
2023/02/08 04:02:11;;;;;;;31.52;19.33;;;;;;;-4.96;100.00;103651.75;5088087;28;20059;-81
2023/02/08 04:04:41;;;;;;;31.58;18.80;;;;;;;-4.94;100.00;103653.72;5085538;28;20105;-86
2023/02/08 04:07:06;;;;;;;31.55;18.77;;;;;;;-4.98;100.00;103655.78;5085051;28;20120;-81
2023/02/08 04:09:32;;;;;;;31.52;19.02;;;;;;;-4.97;100.00;103649.91;5084715;28;20107;-83
2023/02/08 04:11:57;;;;;;;32.90;18.98;;;;;;;-4.99;100.00;103648.81;5086116;28;20034;-82
2023/02/08 04:14:23;;;;;;;32.13;19.65;;;;;;;-4.99;100.00;103654.88;5082379;28;20032;-82
2023/02/08 04:16:48;;;;;;;32.60;19.38;;;;;;;-4.97;100.00;103655.06;5086590;28;20043;-88
2023/02/08 04:19:13;;;;;;;31.90;19.48;;;;;;;-4.97;100.00;103655.06;5083825;28;20054;-83
2023/02/08 04:21:39;;;;;;;31.85;19.50;;;;;;;-5.00;100.00;103640.13;5085853;28;20032;-86
2023/02/08 04:24:04;;;;;;;31.55;19.13;;;;;;;-4.95;100.00;103651.91;5085011;28;20119;-86
2023/02/08 04:26:30;;;;;;;30.95;19.10;;;;;;;-4.94;100.00;103642.50;5084570;28;20459;-80
2023/02/08 04:28:55;;;;;;;34.78;19.88;;;;;;;-4.95;100.00;103650.97;5085958;28;20463;-84
2023/02/08 04:31:20;;;;;;;30.40;18.75;;;;;;;-4.99;100.00;103646.25;5082965;28;20028;-86
2023/02/08 04:33:46;;;;;;;30.83;19.52;;;;;;;-5.05;100.00;103643.88;5086296;28;20024;-85
2023/02/08 04:36:11;;;;;;;31.90;18.90;;;;;;;-4.99;100.00;103643.66;5083544;28;20044;-85
2023/02/08 04:38:37;;;;;;;30.83;19.15;;;;;;;-5.03;100.00;103642.38;5084706;28;20543;-85
2023/02/08 04:41:02;;;;;;;31.45;19.20;;;;;;;-4.99;100.00;103647.16;5085226;28;20028;-85
2023/02/08 04:43:27;;;;;;;30.95;19.02;;;;;;;-5.06;100.00;103643.72;5083390;28;20037;-84
2023/02/08 04:45:53;;;;;;;30.83;18.90;;;;;;;-5.05;100.00;103640.38;5086245;28;20028;-84
2023/02/08 04:48:19;;;;;;;32.90;19.33;;;;;;;-5.05;100.00;103637.78;5082849;28;20036;-79
2023/02/08 04:50:45;;;;;;;30.55;18.40;;;;;;;-5.08;100.00;103644.44;5085550;28;20024;-86
2023/02/08 04:53:10;;;;;;;30.80;18.40;;;;;;;-5.17;100.00;103639.91;5083550;28;20158;-85
2023/02/08 04:55:36;;;;;;;31.92;19.33;;;;;;;-5.12;100.00;103644.84;5084493;28;20033;-85
2023/02/08 04:58:01;;;;;;;31.83;19.27;;;;;;;-5.17;100.00;103652.81;5084777;28;20040;-84
2023/02/08 05:00:27;;;;;;;30.80;18.75;;;;;;;-5.15;100.00;103656.50;5083317;28;20482;-81
2023/02/08 05:02:53;;;;;;;32.00;19.25;;;;;;;-5.15;100.00;103653.91;5086181;28;20487;-84
2023/02/08 05:05:19;;;;;;;30.83;18.85;;;;;;;-5.13;100.00;103649.84;5082544;28;20035;-84
2023/02/08 05:07:44;;;;;;;31.45;19.02;;;;;;;-5.07;100.00;103645.34;5085219;28;20044;-84
2023/02/08 05:10:09;;;;;;;31.48;18.50;;;;;;;-5.08;100.00;103646.13;5083178;28;20028;-84
2023/02/08 05:12:35;;;;;;;30.50;18.73;;;;;;;-5.07;100.00;103635.03;5083697;28;20479;-86
2023/02/08 05:15:00;;;;;;;30.92;19.13;;;;;;;-5.09;100.00;103642.59;5084716;28;20055;-74
2023/02/08 05:17:26;;;;;;;31.88;18.95;;;;;;;-5.06;100.00;103642.03;5082329;28;20145;-74
2023/02/08 05:19:51;;;;;;;30.33;18.35;;;;;;;-5.11;100.00;103649.28;5085443;28;20039;-74
2023/02/08 05:22:16;;;;;;;31.30;18.50;;;;;;;-5.05;100.00;103642.94;5082714;28;20044;-74
2023/02/08 05:24:42;;;;;;;30.80;18.55;;;;;;;-5.15;100.00;103653.91;5083220;28;20057;-74
2023/02/08 05:27:07;;;;;;;32.03;18.92;;;;;;;-5.11;100.00;103650.91;5083357;28;20039;-74
2023/02/08 05:29:32;;;;;;;31.33;19.15;;;;;;;-5.12;100.00;103647.44;5083266;28;20032;-74
2023/02/08 05:31:57;;;;;;;30.40;18.55;;;;;;;-5.08;100.00;103644.44;5084575;28;20040;-74
2023/02/08 05:34:23;;;;;;;31.98;19.00;;;;;;;-5.15;100.00;103651.34;5080511;28;20060;-75
2023/02/08 05:36:48;;;;;;;29.83;17.85;;;;;;;-5.20;100.00;103652.47;5085321;28;20069;-75
2023/02/08 05:39:14;;;;;;;30.70;18.95;;;;;;;-5.21;100.00;103648.97;5082253;28;20088;-75
2023/02/08 05:41:39;;;;;;;31.85;18.73;;;;;;;-5.17;100.00;103647.66;5084336;28;20036;-74
2023/02/08 05:44:04;;;;;;;31.40;18.75;;;;;;;-5.11;100.00;103640.59;5083374;28;20028;-75
2023/02/08 05:46:30;;;;;;;31.23;18.95;;;;;;;-5.12;100.00;103641.38;5082462;28;20033;-75
2023/02/08 05:48:55;;;;;;;31.13;18.63;;;;;;;-5.09;100.00;103636.53;5084919;28;20036;-74
2023/02/08 05:51:20;;;;;;;30.55;18.90;;;;;;;-5.05;100.00;103631.00;5081422;28;20042;-74
2023/02/08 05:53:46;;;;;;;30.42;18.65;;;;;;;-5.09;100.00;103626.22;5084497;28;20089;-74
2023/02/08 05:56:11;;;;;;;30.85;18.08;;;;;;;-5.06;100.00;103620.50;5082511;28;20060;-75
2023/02/08 05:58:37;;;;;;;32.08;18.73;;;;;;;-5.09;100.00;103615.91;5083080;28;20063;-74
2023/02/08 06:01:09;;;;;;;31.83;18.77;;;;;;;-5.03;100.00;103621.75;5083645;28;20106;-74
2023/02/08 06:03:34;;;;;;;33.25;19.50;;;;;;;-4.96;100.00;103625.94;5083072;28;20047;-74
2023/02/08 06:06:00;;;;;;;32.58;19.10;;;;;;;-4.98;100.00;103628.34;5083896;28;20471;-74
2023/02/08 06:08:26;;;;;;;30.33;18.90;;;;;;;-4.92;100.00;103635.88;5081283;28;20020;-74
2023/02/08 06:10:51;;;;;;;31.45;18.42;;;;;;;-5.05;100.00;103633.56;5084871;28;20494;-74
2023/02/08 06:13:17;;;;;;;31.67;18.65;;;;;;;-5.09;100.00;103636.53;5081389;28;20115;-74
2023/02/08 06:15:42;;;;;;;30.73;17.90;;;;;;;-5.10;100.00;103629.53;5083534;28;20026;-74
2023/02/08 06:18:08;;;;;;;30.27;18.92;;;;;;;-5.15;100.00;103641.03;5082724;28;20028;-74
2023/02/08 06:20:33;;;;;;;31.90;18.85;;;;;;;-5.09;100.00;103639.13;5081072;28;20032;-86
2023/02/08 06:22:59;;;;;;;33.22;18.52;;;;;;;-5.05;100.00;103636.16;5083090;28;20073;-83
2023/02/08 06:25:24;;;;;;;31.58;18.80;;;;;;;-5.08;100.00;103634.13;5081285;28;20024;-84
2023/02/08 06:27:50;;;;;;;32.05;18.83;;;;;;;-5.07;100.00;103632.47;5084265;28;20479;-86
2023/02/08 06:30:15;;;;;;;30.58;18.40;;;;;;;-4.97;100.00;103637.00;5080552;28;20040;-76
2023/02/08 06:32:41;;;;;;;31.15;19.08;;;;;;;-4.99;100.00;103630.75;5090083;28;20016;-75
2023/02/08 06:35:06;;;;;;;32.30;18.45;;;;;;;-4.99;100.00;103623.91;5090953;28;20101;-75
2023/02/08 06:37:32;;;;;;;31.48;18.60;;;;;;;-4.99;100.00;103628.19;5091968;28;20077;-77
2023/02/08 06:39:57;;;;;;;31.88;18.77;;;;;;;-4.99;100.00;103629.09;5090059;28;20068;-75
2023/02/08 06:42:25;;;;;;;30.50;18.48;;;;;;;-4.98;100.00;103628.34;5091850;28;20368;-74
2023/02/08 06:44:52;;;;;;;31.63;18.20;;;;;;;-4.96;100.00;103629.41;5092026;28;20433;-74
2023/02/08 06:47:17;;;;;;;33.95;18.40;;;;;;;-5.00;100.00;103627.25;5091333;28;20036;-74
2023/02/08 06:49:42;;;;;;;30.13;17.92;;;;;;;-5.04;100.00;103624.16;5091743;28;20051;-75
2023/02/08 06:52:08;;;;;;;32.50;19.33;;;;;;;-4.95;100.00;103632.91;5090185;28;20110;-75
2023/02/08 06:54:33;;;;;;;31.35;18.58;;;;;;;-4.92;100.00;103634.19;5090320;28;20039;-74
2023/02/08 06:56:59;;;;;;;31.80;19.00;;;;;;;-4.82;100.00;103635.19;5091626;28;20028;-74
2023/02/08 06:59:24;;;;;;;31.85;18.38;;;;;;;-4.95;100.00;103640.66;5091763;28;20028;-73
2023/02/08 07:01:50;;;;;;;32.38;18.63;;;;;;;-4.97;100.00;103635.31;5091415;28;20126;-75
2023/02/08 07:04:15;;;;;;;31.23;18.77;;;;;;;-4.97;100.00;103626.66;5091231;28;20051;-74
2023/02/08 07:06:41;;;;;;;33.00;18.77;;;;;;;-4.87;100.00;103631.22;5091188;28;20094;-73
2023/02/08 07:09:06;;;;;;;33.13;18.85;;;;;;;-4.87;100.00;103632.09;5089975;28;20135;-74
2023/02/08 07:11:32;;;;;;;32.33;18.52;;;;;;;-4.80;100.00;103625.97;5091922;28;20036;-72
2023/02/08 07:13:57;;;;;;;31.40;17.90;;;;;;;-4.67;100.00;103631.75;5091745;28;20028;-74
2023/02/08 07:16:22;;;;;;;30.95;18.27;;;;;;;-4.62;100.00;103628.00;5089640;28;20429;-75
2023/02/08 07:18:48;;;;;;;30.50;18.38;;;;;;;-4.62;100.00;103635.72;5091308;28;20119;-74
2023/02/08 07:21:13;;;;;;;31.50;19.05;;;;;;;-4.51;100.00;103631.78;5090968;28;20023;-74
2023/02/08 07:23:39;;;;;;;31.67;18.08;;;;;;;-4.53;100.00;103627.19;5091392;28;20051;-72
2023/02/08 07:26:08;;;;;;;32.05;18.83;;;;;;;-4.48;100.00;103634.69;5091713;28;20375;-74
2023/02/08 07:28:34;;;;;;;31.35;18.13;;;;;;;-4.52;100.00;103636.78;5090366;28;20111;-74
2023/02/08 07:31:03;;;;;;;31.10;17.85;;;;;;;-4.50;100.00;103632.69;5089659;28;20118;-72
2023/02/08 07:33:28;;;;;;;33.40;18.35;;;;;;;-4.50;100.00;103632.69;5090448;28;20067;-72
2023/02/08 07:35:53;;;;;;;31.77;18.77;;;;;;;-4.55;100.00;103627.00;5094945;28;20075;-72
2023/02/08 07:38:19;;;;;;;31.02;18.65;;;;;;;-4.53;100.00;103622.00;5094720;28;20035;-73
2023/02/08 07:40:44;;;;;;;31.77;19.05;;;;;;;-4.52;100.00;103623.88;5094953;28;20024;-75
2023/02/08 07:43:09;;;;;;;30.95;18.55;;;;;;;-4.44;100.00;103623.94;5095133;28;20440;-72
2023/02/08 07:45:38;;;;;;;32.42;19.02;;;;;;;-4.31;100.00;103630.44;5095105;28;20028;-72
2023/02/08 07:48:04;;;;;;;32.13;18.92;;;;;;;-4.35;100.00;103629.22;5094474;28;20027;-72
2023/02/08 07:50:29;;;;;;;33.05;19.20;;;;;;;-4.28;100.00;103634.28;5093454;28;20024;-72
2023/02/08 07:52:55;;;;;;;33.67;19.90;;;;;;;-4.26;100.00;103627.63;5094782;28;20107;-75
2023/02/08 07:55:20;;;;;;;32.88;20.45;;;;;;;-4.24;100.00;103623.56;5094829;28;20493;-73
2023/02/08 07:57:47;;;;;;;32.25;19.60;;;;;;;-4.13;100.00;103627.28;5094596;28;20484;-73
2023/02/08 08:00:14;;;;;;;31.38;19.40;;;;;;;-4.05;100.00;103620.34;5094828;28;20020;-73
2023/02/08 08:02:40;;;;;;;31.95;19.08;;;;;;;-3.93;100.00;103632.03;5094693;28;20085;-74
2023/02/08 08:05:07;;;;;;;31.27;19.38;;;;;;;-3.80;100.00;103633.31;5094178;28;20030;-73
2023/02/08 08:07:32;;;;;;;35.58;19.10;;;;;;;-3.68;100.00;103624.31;5093977;28;20067;-71
2023/02/08 08:09:57;;;;;;;31.15;18.75;;;;;;;-3.57;100.00;103621.19;5090989;28;20085;-72
2023/02/08 08:12:25;;;;;;;31.38;19.00;;;;;;;-3.48;100.00;103617.72;5090259;28;20028;-74
2023/02/08 08:14:52;;;;;;;30.88;18.73;;;;;;;-3.39;100.00;103611.88;5091894;28;20483;-74
2023/02/08 08:17:18;;;;;;;32.08;18.48;;;;;;;-3.31;100.00;103607.50;5092595;28;20036;-74
2023/02/08 08:19:43;;;;;;;30.40;18.63;;;;;;;-3.19;100.00;103616.56;5093611;28;20028;-74
2023/02/08 08:22:08;;;;;;;30.85;17.88;;;;;;;-3.06;100.00;103617.81;5094375;28;20383;-74
2023/02/08 08:24:34;;;;;;;30.13;18.20;;;;;;;-2.90;100.00;103617.72;5094275;28;20028;-74
2023/02/08 08:27:04;;;;;;;29.83;18.33;;;;;;;-2.73;100.00;103615.19;5093373;28;20035;-72
2023/02/08 08:29:31;;;;;;;31.25;18.17;;;;;;;-2.47;100.00;103614.38;5093631;28;20107;-72
2023/02/08 08:31:56;;;;;;;29.45;17.90;;;;;;;-2.25;100.00;103627.81;5093721;28;20049;-73
2023/02/08 08:34:28;;;;;;;29.70;17.55;;;;;;;-2.04;100.00;103620.34;5092230;28;20075;-74
2023/02/08 08:36:54;;;;;;;30.40;18.10;;;;;;;-1.93;100.00;103612.88;5092022;28;20058;-72
2023/02/08 08:39:20;;;;;;;29.55;18.10;;;;;;;-1.76;100.00;103614.56;5093572;28;20036;-73
2023/02/08 08:41:45;;;;;;;29.42;17.48;;;;;;;-1.58;100.00;103615.44;5092706;28;20493;-87
2023/02/08 08:44:10;;;;;;;29.27;17.98;;;;;;;-1.33;100.00;103612.63;5093722;28;20402;-87
2023/02/08 08:46:36;;;;;;;29.98;17.27;;;;;;;-1.16;100.00;103611.69;5093015;28;20416;-90
2023/02/08 08:49:02;;;;;;;29.30;17.55;;;;;;;-0.97;100.00;103616.94;5091877;28;20032;-73
2023/02/08 08:51:27;;;;;;;27.90;16.90;;;;;;;-0.82;100.00;103614.88;5090338;28;20039;-73
2023/02/08 08:53:52;;;;;;;29.15;16.83;;;;;;;-0.57;100.00;103610.34;5093213;28;20032;-76
2023/02/08 08:56:18;;;;;;;28.17;16.27;;;;;;;-0.30;100.00;103611.09;5093617;28;20020;-76
2023/02/08 08:58:43;;;;;;;29.42;16.17;;;;;;;-0.07;100.00;103601.91;5093203;28;20028;-74
2023/02/08 09:01:09;;;;;;;28.58;16.60;;;;;;;0.08;100.00;103602.38;5093600;28;20028;-76
2023/02/08 09:03:34;;;;;;;28.83;16.55;;;;;;;0.16;100.00;103606.56;5093271;28;20032;-74
2023/02/08 09:05:59;;;;;;;29.15;16.10;;;;;;;0.31;100.00;103600.16;5086772;28;20468;-76
2023/02/08 09:08:25;;;;;;;27.80;16.48;;;;;;;0.38;100.00;103598.09;5083296;28;20546;-74
2023/02/08 09:10:50;;;;;;;28.80;16.15;;;;;;;0.46;100.00;103591.91;5083784;28;20032;-74
2023/02/08 09:13:18;;;;;;;26.08;15.63;;;;;;;0.62;100.00;103597.69;5083453;28;20032;-74
2023/02/08 09:15:44;;;;;;;27.02;15.27;;;;;;;0.69;100.00;103596.56;5084467;28;20028;-74
2023/02/08 09:18:10;;;;;;;27.17;14.80;;;;;;;0.74;100.00;103605.69;5082250;28;20494;-74
2023/02/08 09:20:38;;;;;;;26.88;14.88;;;;;;;0.69;100.00;103602.66;5085764;28;20051;-74
2023/02/08 09:23:04;;;;;;;26.73;15.70;;;;;;;0.69;100.00;103597.47;5081901;28;20481;-74
2023/02/08 09:25:29;;;;;;;28.60;16.10;;;;;;;0.80;100.00;103605.31;5084862;28;20056;-75
2023/02/08 09:27:54;;;;;;;28.38;15.73;;;;;;;0.89;100.00;103606.13;5083250;28;20059;-75
2023/02/08 09:30:20;;;;;;;27.15;15.45;;;;;;;1.17;100.00;103605.94;5087056;28;20023;-74
2023/02/08 09:32:45;;;;;;;25.77;14.48;;;;;;;1.13;100.00;103609.06;5091492;28;20055;-75
2023/02/08 09:35:12;;;;;;;25.90;14.30;;;;;;;1.10;100.00;103601.88;5092514;28;20626;-75
2023/02/08 09:37:37;;;;;;;26.20;14.10;;;;;;;1.25;100.00;103612.72;5092745;28;20030;-75
2023/02/08 09:40:03;;;;;;;25.98;14.35;;;;;;;1.50;100.00;103612.22;5092913;28;20028;-74
2023/02/08 09:42:36;;;;;;;25.75;13.85;;;;;;;1.78;100.00;103601.50;5091640;28;20038;-74
2023/02/08 09:45:20;;;;;;;26.13;14.05;;;;;;;1.92;100.00;103611.41;5089656;28;20028;-73
2023/02/08 09:47:57;;;;;;;26.15;13.38;;;;;;;2.12;100.00;103617.41;5091827;28;20115;-75
2023/02/08 09:50:31;;;;;;;25.05;13.00;;;;;;;2.21;100.00;103612.94;5092332;28;20378;-75
2023/02/08 09:53:01;;;;;;;25.15;12.70;;;;;;;2.61;100.00;103609.28;5089788;28;20028;-75
2023/02/08 09:55:36;;;;;;;25.00;12.77;;;;;;;2.55;100.00;103611.41;5092193;28;20317;-75
2023/02/08 09:58:16;;;;;;;25.33;12.75;;;;;;;2.43;100.00;103607.78;5091033;28;20024;-74
2023/02/08 10:00:45;;;;;;;24.08;12.38;;;;;;;2.28;100.00;103601.31;5082855;28;20067;-75
2023/02/08 10:03:40;;;;;;;24.00;11.93;;;;;;;2.44;100.00;103601.78;5084999;28;20386;-75
2023/02/08 10:06:08;;;;;;;24.33;12.32;;;;;;;2.55;100.00;103606.19;5091019;28;20395;-77
2023/02/08 10:08:34;;;;;;;25.90;12.00;;;;;;;2.85;95.66;103598.06;5091743;28;20028;-76
2023/02/08 10:11:09;;;;;;;23.23;11.60;;;;;;;2.90;76.19;103597.66;5091444;28;20063;-75
2023/02/08 10:13:43;;;;;;;23.65;11.40;;;;;;;3.12;68.56;103610.72;5090469;28;20017;-74
2023/02/08 10:16:22;;;;;;;24.08;11.70;;;;;;;3.48;62.77;103608.22;5090369;28;20506;-74
2023/02/08 10:19:02;;;;;;;22.92;11.00;;;;;;;3.50;59.28;103619.75;5091553;28;20028;-75
2023/02/08 10:21:46;;;;;;;23.33;11.40;;;;;;;3.88;60.40;103626.09;5091039;28;20031;-73
2023/02/08 10:24:30;;;;;;;22.30;10.75;;;;;;;3.94;57.16;103618.69;5091572;28;20028;-74
2023/02/08 10:27:16;;;;;;;23.60;11.13;;;;;;;4.16;58.17;103610.75;5091007;28;20050;-75
2023/02/08 10:30:11;;;;;;;24.00;10.52;;;;;;;4.58;55.16;103617.34;5090861;28;20020;-73
2023/02/08 10:33:04;;;;;;;24.02;11.48;;;;;;;5.26;56.56;103624.81;5088463;28;20028;-87
2023/02/08 10:35:36;;;;;;;23.52;11.65;;;;;;;6.22;50.62;103619.13;5090413;28;20085;-88
2023/02/08 10:38:22;;;;;;;22.63;10.87;;;;;;;6.93;48.12;103625.44;5091882;28;20509;-74
2023/02/08 10:41:22;;;;;;;23.85;11.18;;;;;;;7.32;47.11;103623.47;5089357;28;20028;-74
2023/02/08 10:44:17;;;;;;;23.70;11.40;;;;;;;7.11;45.71;103628.34;5090272;28;20385;-75
2023/02/08 10:47:00;;;;;;;23.67;11.68;;;;;;;7.42;44.87;103624.97;5090562;28;20487;-92
2023/02/08 10:49:39;;;;;;;23.05;10.90;;;;;;;8.54;42.67;103625.47;5093864;28;20534;-93
2023/02/08 10:52:05;;;;;;;22.92;10.80;;;;;;;8.99;40.59;103618.31;5090942;28;20363;-93
2023/02/08 10:54:32;;;;;;;22.65;10.40;;;;;;;9.88;41.05;103618.59;5091265;28;20039;-92
2023/02/08 10:57:05;;;;;;;23.65;10.75;;;;;;;10.60;37.75;103618.63;5091849;28;20032;-84
2023/02/08 10:59:35;;;;;;;22.45;10.80;;;;;;;11.27;37.18;103612.97;5081738;28;20020;-92
2023/02/08 11:02:01;;;;;;;23.60;9.93;;;;;;;12.00;33.73;103614.44;5084684;28;20497;-92
2023/02/08 11:04:26;;;;;;;23.67;10.88;;;;;;;12.46;34.60;103609.22;5080842;28;20032;-92
2023/02/08 11:06:53;;;;;;;22.45;10.82;;;;;;;12.85;31.82;103609.88;5083548;28;20073;-93
2023/02/08 11:09:22;;;;;;;22.85;10.43;;;;;;;12.94;31.80;103608.44;5083707;28;20039;-93
2023/02/08 11:11:51;;;;;;;24.13;10.55;;;;;;;13.27;31.07;103603.50;5087113;28;20117;-92
2023/02/08 11:14:19;;;;;;;22.67;10.25;;;;;;;13.55;30.33;103597.44;5085926;28;20031;-74
2023/02/08 11:16:55;;;;;;;23.33;10.60;;;;;;;13.69;31.71;103595.28;5086184;28;20020;-76
2023/02/08 11:19:44;;;;;;;23.33;11.25;;;;;;;14.39;34.35;103594.94;5085008;28;20037;-74